Time;durP1;ratioP1;P1;durP2;ratioP2;P2;SDS_P1;SDS_P2;PMS_P1;PMS_P2;Temp;Humidity;BMP_temperature;BMP_pressure;BME280_temperature;BME280_humidity;BME280_pressure;Samples;Min_cycle;Max_cycle;Signal;HPM_P1;HPM_P2
2021/09/24 00:01:59;;;;;;;14.45;3.92;;;15.20;99.90;;;;;;4097465;28;20527;-72
2021/09/24 00:04:00;;;;;;;12.88;4.45;;;15.30;99.90;;;;;;4101309;28;20485;-72
2021/09/24 00:06:00;;;;;;;13.65;4.80;;;15.30;99.90;;;;;;4099539;28;20064;-73
2021/09/24 00:08:01;;;;;;;14.88;4.18;;;15.40;99.90;;;;;;4098281;28;20493;-73
2021/09/24 00:10:05;;;;;;;12.48;3.90;;;15.40;99.90;;;;;;4099338;28;20129;-73
2021/09/24 00:12:07;;;;;;;10.90;4.15;;;15.50;99.90;;;;;;4102605;28;20243;-73
2021/09/24 00:14:08;;;;;;;15.55;4.60;;;15.50;99.90;;;;;;4101850;28;20030;-74
2021/09/24 00:16:09;;;;;;;13.45;3.75;;;15.50;99.90;;;;;;4076617;28;20581;-73
2021/09/24 00:18:10;;;;;;;12.27;3.97;;;15.50;99.90;;;;;;4080403;28;20122;-72
2021/09/24 00:20:11;;;;;;;10.75;3.85;;;15.50;99.90;;;;;;4093520;28;20083;-72
2021/09/24 00:22:12;;;;;;;15.85;4.88;;;15.50;99.90;;;;;;4092346;28;20120;-73
2021/09/24 00:24:14;;;;;;;14.20;4.88;;;15.40;99.90;;;;;;4090693;28;20045;-72
2021/09/24 00:26:16;;;;;;;15.88;4.93;;;15.40;99.90;;;;;;4079049;28;20165;-73
2021/09/24 00:28:17;;;;;;;12.50;4.63;;;15.40;99.90;;;;;;4098009;28;20497;-73
2021/09/24 00:30:18;;;;;;;19.92;5.30;;;15.40;99.90;;;;;;4100385;28;20104;-72
2021/09/24 00:32:21;;;;;;;11.38;4.72;;;15.40;99.90;;;;;;4097688;28;20073;-72
2021/09/24 00:34:24;;;;;;;9.45;4.40;;;15.30;99.90;;;;;;4084660;28;20058;-72
2021/09/24 00:36:25;;;;;;;12.90;4.15;;;15.30;99.90;;;;;;4099326;28;20068;-72
2021/09/24 00:38:25;;;;;;;10.73;4.60;;;15.30;99.90;;;;;;4098724;28;20033;-74
2021/09/24 00:40:26;;;;;;;13.45;4.22;;;15.30;99.90;;;;;;4099521;28;20046;-74
2021/09/24 00:42:27;;;;;;;12.00;4.65;;;15.30;99.90;;;;;;4094567;28;20045;-73
2021/09/24 00:44:32;;;;;;;11.90;4.43;;;15.30;99.90;;;;;;4082942;28;20478;-73
2021/09/24 00:46:33;;;;;;;14.75;4.95;;;15.30;99.90;;;;;;4099141;28;20409;-73
2021/09/24 00:48:34;;;;;;;11.85;3.83;;;15.30;99.90;;;;;;4113311;28;20053;-73
2021/09/24 00:50:35;;;;;;;11.70;4.03;;;15.30;99.90;;;;;;4098099;28;20045;-74
2021/09/24 00:52:36;;;;;;;14.70;4.35;;;15.40;99.90;;;;;;4099268;28;20070;-74
2021/09/24 00:54:40;;;;;;;14.82;5.03;;;15.40;99.90;;;;;;4079776;28;20434;-74
2021/09/24 00:56:41;;;;;;;11.32;4.22;;;15.40;99.90;;;;;;4099516;28;20124;-73
2021/09/24 00:58:41;;;;;;;16.13;5.53;;;15.40;99.90;;;;;;4094554;28;20414;-72
2021/09/24 01:00:42;;;;;;;10.30;4.75;;;15.50;99.90;;;;;;4090748;28;20038;-74
2021/09/24 01:02:44;;;;;;;11.52;3.40;;;15.50;99.90;;;;;;4089308;28;20042;-73
2021/09/24 01:04:45;;;;;;;12.93;4.28;;;15.40;99.90;;;;;;4093304;28;20053;-73
2021/09/24 01:06:46;;;;;;;12.65;5.00;;;15.50;99.90;;;;;;4098304;28;20141;-73
2021/09/24 01:08:47;;;;;;;11.95;4.60;;;15.50;99.90;;;;;;4098579;28;20053;-73
2021/09/24 01:10:49;;;;;;;13.52;4.00;;;15.50;99.90;;;;;;4100139;28;20408;-73
2021/09/24 01:12:49;;;;;;;13.63;3.97;;;15.50;99.90;;;;;;4115341;28;20060;-74
2021/09/24 01:14:59;;;;;;;13.07;4.15;;;15.40;99.90;;;;;;4100661;28;20069;-74
2021/09/24 01:17:01;;;;;;;11.07;4.40;;;15.40;99.90;;;;;;4094551;28;20057;-73
2021/09/24 01:19:02;;;;;;;8.13;4.13;;;15.50;99.90;;;;;;4082912;28;20125;-73
2021/09/24 01:21:09;;;;;;;15.95;4.28;;;15.40;99.90;;;;;;4097157;28;20133;-73
2021/09/24 01:23:10;;;;;;;10.63;4.38;;;15.40;99.90;;;;;;4098971;28;20049;-74
2021/09/24 01:25:13;;;;;;;13.32;4.85;;;15.40;99.90;;;;;;4080606;28;20042;-72
2021/09/24 01:27:14;;;;;;;10.07;4.57;;;15.40;99.90;;;;;;4083253;28;20050;-73
2021/09/24 01:29:16;;;;;;;13.70;5.45;;;15.40;99.90;;;;;;4114795;28;20122;-73
2021/09/24 01:31:19;;;;;;;13.98;5.30;;;15.40;99.90;;;;;;4114515;28;20042;-74
2021/09/24 01:33:20;;;;;;;13.32;4.50;;;15.40;99.90;;;;;;4097933;28;20080;-74
2021/09/24 01:35:21;;;;;;;13.35;4.90;;;15.30;99.90;;;;;;4082400;28;20046;-74
2021/09/24 01:37:22;;;;;;;12.52;5.18;;;15.30;99.90;;;;;;4100648;28;20041;-73
2021/09/24 01:39:22;;;;;;;19.85;5.15;;;15.30;99.90;;;;;;4097391;28;20053;-73
2021/09/24 01:41:23;;;;;;;15.48;4.85;;;15.30;99.90;;;;;;4093535;28;20048;-73
2021/09/24 01:43:24;;;;;;;11.45;4.63;;;15.30;99.90;;;;;;4099540;28;20042;-74
2021/09/24 01:45:25;;;;;;;12.70;5.68;;;15.30;99.90;;;;;;4098896;28;20050;-74
2021/09/24 01:47:25;;;;;;;12.00;5.70;;;15.30;99.90;;;;;;4096817;28;20050;-73
2021/09/24 01:49:27;;;;;;;14.90;4.38;;;15.30;99.90;;;;;;4099076;28;20137;-72
2021/09/24 01:51:27;;;;;;;10.85;4.45;;;15.30;99.90;;;;;;4099893;28;20086;-73
2021/09/24 01:53:28;;;;;;;11.18;4.60;;;15.20;99.90;;;;;;4099875;28;20151;-72
2021/09/24 01:55:29;;;;;;;14.13;5.07;;;15.30;99.90;;;;;;4096630;28;20065;-74
2021/09/24 01:57:30;;;;;;;7.97;4.57;;;15.30;99.90;;;;;;4100548;28;20034;-72
2021/09/24 01:59:31;;;;;;;9.10;4.82;;;15.30;99.90;;;;;;4091945;28;20100;-74
2021/09/24 02:01:32;;;;;;;13.35;4.60;;;15.30;99.90;;;;;;4090284;28;20041;-73
2021/09/24 02:03:32;;;;;;;13.00;4.65;;;15.40;99.90;;;;;;4099425;28;20975;-72
2021/09/24 02:05:33;;;;;;;13.45;5.10;;;15.30;99.90;;;;;;4100211;28;20160;-73
2021/09/24 02:07:34;;;;;;;16.42;5.47;;;15.40;99.90;;;;;;4100714;28;20041;-72
2021/09/24 02:09:35;;;;;;;10.23;5.10;;;15.40;99.90;;;;;;4091880;28;20070;-72
2021/09/24 02:11:36;;;;;;;9.40;5.50;;;15.50;99.90;;;;;;4084739;28;20153;-74
2021/09/24 02:13:41;;;;;;;15.90;4.82;;;15.50;99.90;;;;;;4102606;28;20052;-73
2021/09/24 02:15:42;;;;;;;13.70;5.53;;;15.50;99.90;;;;;;4095739;28;20189;-74
2021/09/24 02:17:43;;;;;;;14.15;5.13;;;15.50;99.90;;;;;;4098932;28;20041;-73
2021/09/24 02:19:44;;;;;;;16.50;6.05;;;15.40;99.90;;;;;;4101287;28;20109;-72
2021/09/24 02:21:45;;;;;;;15.43;5.90;;;15.40;99.90;;;;;;4098490;28;20045;-73
2021/09/24 02:23:45;;;;;;;12.93;5.13;;;15.40;99.90;;;;;;4097782;28;20042;-72
2021/09/24 02:25:46;;;;;;;14.60;6.32;;;15.30;99.90;;;;;;4099625;28;20038;-71
2021/09/24 02:27:47;;;;;;;19.98;5.63;;;15.30;99.90;;;;;;4103039;28;20034;-73
2021/09/24 02:29:49;;;;;;;17.83;5.28;;;15.40;99.90;;;;;;4100610;28;20132;-73
2021/09/24 02:31:50;;;;;;;16.30;5.30;;;15.40;99.90;;;;;;4104096;28;20077;-74
2021/09/24 02:33:50;;;;;;;9.57;5.13;;;15.40;99.90;;;;;;4097798;28;20037;-73
2021/09/24 02:35:51;;;;;;;16.27;5.47;;;15.50;99.90;;;;;;4098463;28;20132;-73
2021/09/24 02:37:52;;;;;;;14.15;4.93;;;15.40;99.90;;;;;;4100106;28;20049;-74
2021/09/24 02:39:53;;;;;;;15.90;6.05;;;15.40;99.90;;;;;;4100048;28;20112;-73
2021/09/24 02:41:54;;;;;;;11.98;4.65;;;15.40;99.90;;;;;;4098030;28;20042;-72
2021/09/24 02:43:54;;;;;;;8.60;6.20;;;15.40;99.90;;;;;;4100420;28;20052;-73
2021/09/24 02:45:55;;;;;;;17.20;5.60;;;15.40;99.90;;;;;;4084354;28;20070;-74
2021/09/24 02:47:56;;;;;;;12.90;6.03;;;15.40;99.90;;;;;;4100276;28;20122;-74
2021/09/24 02:49:57;;;;;;;10.20;5.03;;;15.30;99.90;;;;;;4100546;28;20144;-73
2021/09/24 02:51:58;;;;;;;15.27;5.97;;;15.40;99.90;;;;;;4101535;28;20448;-72
2021/09/24 02:53:59;;;;;;;11.63;5.47;;;15.50;99.90;;;;;;4101061;28;20104;-72
2021/09/24 02:55:59;;;;;;;13.18;5.07;;;15.50;99.90;;;;;;4099983;28;20057;-73
2021/09/24 02:58:00;;;;;;;16.42;4.97;;;15.50;99.90;;;;;;4100449;28;20053;-73
2021/09/24 03:00:05;;;;;;;9.10;4.95;;;15.50;99.90;;;;;;4083532;28;20057;-73
2021/09/24 03:02:06;;;;;;;13.00;5.28;;;15.50;99.90;;;;;;4098994;28;20705;-72
2021/09/24 03:04:07;;;;;;;16.65;5.70;;;15.50;99.90;;;;;;4097347;28;20038;-73
2021/09/24 03:06:08;;;;;;;11.55;5.53;;;15.50;99.90;;;;;;4100184;28;20452;-74
2021/09/24 03:08:09;;;;;;;21.90;7.57;;;15.40;99.90;;;;;;4099374;28;20069;-73
2021/09/24 03:10:11;;;;;;;12.02;5.38;;;15.40;99.90;;;;;;4099227;28;20034;-74
2021/09/24 03:12:11;;;;;;;11.88;5.60;;;15.40;99.90;;;;;;4097526;28;20096;-73
2021/09/24 03:14:13;;;;;;;12.18;5.18;;;15.30;99.90;;;;;;4082918;28;20038;-73
2021/09/24 03:16:19;;;;;;;10.13;5.40;;;15.30;99.90;;;;;;4100668;28;20137;-73
2021/09/24 03:18:20;;;;;;;11.85;7.07;;;15.30;99.90;;;;;;4097976;28;20532;-73
2021/09/24 03:20:22;;;;;;;14.75;5.80;;;15.30;99.90;;;;;;4099397;28;20041;-74
2021/09/24 03:22:22;;;;;;;12.88;5.82;;;15.20;99.90;;;;;;4098357;28;20124;-73
2021/09/24 03:24:23;;;;;;;18.95;6.07;;;15.10;99.90;;;;;;4096886;28;20080;-74
2021/09/24 03:26:24;;;;;;;21.88;7.22;;;15.10;99.90;;;;;;4094886;28;20563;-74
2021/09/24 03:28:25;;;;;;;20.38;8.00;;;15.10;99.90;;;;;;4099887;28;20038;-72
2021/09/24 03:30:26;;;;;;;16.67;8.48;;;15.00;99.90;;;;;;4098595;28;20029;-73
2021/09/24 03:32:27;;;;;;;14.20;8.18;;;15.10;99.90;;;;;;4098221;28;20120;-74
2021/09/24 03:34:28;;;;;;;13.18;8.43;;;15.00;99.90;;;;;;4096865;28;20072;-74
2021/09/24 03:36:29;;;;;;;16.10;9.65;;;14.90;99.90;;;;;;4098477;28;20038;-74
2021/09/24 03:38:30;;;;;;;20.17;9.90;;;14.80;99.90;;;;;;4099863;28;20104;-73
2021/09/24 03:40:31;;;;;;;22.50;11.25;;;14.80;99.90;;;;;;4082974;28;20050;-73
2021/09/24 03:42:31;;;;;;;15.18;9.90;;;14.80;99.90;;;;;;4097702;28;20545;-74
2021/09/24 03:44:33;;;;;;;19.02;10.75;;;14.90;99.90;;;;;;4101356;28;20076;-74
2021/09/24 03:46:34;;;;;;;21.25;12.77;;;14.90;99.90;;;;;;4099284;28;20037;-72
2021/09/24 03:48:34;;;;;;;19.83;11.90;;;14.80;99.90;;;;;;4097208;28;20767;-72
2021/09/24 03:50:35;;;;;;;20.48;13.02;;;14.80;99.90;;;;;;4101008;28;20037;-73
2021/09/24 03:52:36;;;;;;;21.13;16.65;;;14.80;99.90;;;;;;4100411;28;20637;-74
2021/09/24 03:54:37;;;;;;;21.60;15.25;;;14.90;99.90;;;;;;4097560;28;20085;-73
2021/09/24 03:56:38;;;;;;;27.75;19.60;;;15.00;99.90;;;;;;4098372;28;20038;-72
2021/09/24 03:58:38;;;;;;;30.17;19.92;;;15.00;99.90;;;;;;4099930;28;20042;-72
2021/09/24 04:00:39;;;;;;;35.17;23.55;;;14.90;99.90;;;;;;4100568;28;20121;-74
2021/09/24 04:02:41;;;;;;;39.85;27.08;;;14.90;99.90;;;;;;4096655;28;20038;-72
2021/09/24 04:04:41;;;;;;;42.38;25.13;;;14.90;99.90;;;;;;4095289;28;20111;-74
2021/09/24 04:06:42;;;;;;;47.75;27.15;;;14.90;99.90;;;;;;4096201;28;20479;-75
2021/09/24 04:08:43;;;;;;;40.63;27.33;;;14.80;99.90;;;;;;4097678;28;20493;-74
2021/09/24 04:10:44;;;;;;;45.88;28.63;;;14.70;99.90;;;;;;4098187;28;20080;-72
2021/09/24 04:12:44;;;;;;;41.75;30.05;;;14.80;99.90;;;;;;4095592;28;20041;-74
2021/09/24 04:14:45;;;;;;;46.05;27.75;;;14.70;99.90;;;;;;4079792;28;20073;-74
2021/09/24 04:16:46;;;;;;;44.63;30.83;;;14.60;99.90;;;;;;4099211;28;20156;-73
2021/09/24 04:18:47;;;;;;;46.78;32.50;;;14.60;99.90;;;;;;4095131;28;20652;-73
2021/09/24 04:20:48;;;;;;;55.00;34.17;;;14.50;99.90;;;;;;4096062;28;20041;-75
2021/09/24 04:22:49;;;;;;;54.38;34.83;;;14.50;99.90;;;;;;4096967;28;20441;-74
2021/09/24 04:24:50;;;;;;;59.20;37.10;;;14.70;99.90;;;;;;4098521;28;21619;-72
2021/09/24 04:26:51;;;;;;;61.92;35.30;;;14.70;99.90;;;;;;4080222;28;20109;-72
2021/09/24 04:28:52;;;;;;;56.47;35.72;;;14.70;99.90;;;;;;4097261;28;20045;-73
2021/09/24 04:30:53;;;;;;;57.08;37.33;;;14.80;99.90;;;;;;4096582;28;20029;-73
2021/09/24 04:32:54;;;;;;;60.63;37.08;;;14.80;99.90;;;;;;4100128;28;20029;-73
2021/09/24 04:34:55;;;;;;;64.63;38.78;;;14.70;99.90;;;;;;4080842;28;20387;-73
2021/09/24 04:36:56;;;;;;;78.03;44.33;;;14.80;99.90;;;;;;4095609;28;20465;-73
2021/09/24 04:38:57;;;;;;;72.22;43.90;;;14.80;99.90;;;;;;4096415;28;20038;-74
2021/09/24 04:40:58;;;;;;;75.50;44.28;;;14.80;99.90;;;;;;4097202;28;20076;-74
2021/09/24 04:42:59;;;;;;;80.85;44.30;;;14.80;99.90;;;;;;4095434;28;20050;-72
2021/09/24 04:45:00;;;;;;;83.55;45.45;;;14.80;99.90;;;;;;4095418;28;20045;-74
2021/09/24 04:47:01;;;;;;;78.25;49.33;;;14.90;99.90;;;;;;4096443;28;20045;-72
2021/09/24 04:49:02;;;;;;;87.35;47.10;;;15.00;99.90;;;;;;4082746;28;20057;-74
2021/09/24 04:51:03;;;;;;;93.18;48.47;;;15.00;99.90;;;;;;4097667;28;20396;-74
2021/09/24 04:53:04;;;;;;;98.03;50.13;;;15.00;99.90;;;;;;4095263;28;20546;-74
2021/09/24 04:55:07;;;;;;;98.88;50.05;;;15.00;99.90;;;;;;4100269;28;20125;-73
2021/09/24 04:57:08;;;;;;;;;;;15.00;99.90;;;;;;4094388;28;20041;-73
2021/09/24 04:59:08;;;;;;;101.20;48.03;;;15.00;99.90;;;;;;4098064;28;19921;-72
2021/09/24 05:01:10;;;;;;;120.70;55.90;;;15.00;99.90;;;;;;4096730;28;20159;-72
2021/09/24 05:03:11;;;;;;;100.20;50.83;;;15.00;99.90;;;;;;4096738;28;20155;-72
2021/09/24 05:05:11;;;;;;;98.88;50.83;;;15.10;99.90;;;;;;4093417;28;20512;-73
2021/09/24 05:07:12;;;;;;;113.72;55.80;;;15.10;99.90;;;;;;4095246;28;20073;-74
2021/09/24 05:09:13;;;;;;;110.30;54.35;;;15.10;99.90;;;;;;4097013;28;20136;-72
2021/09/24 05:11:14;;;;;;;116.55;56.92;;;15.10;99.90;;;;;;4096782;28;20092;-73
2021/09/24 05:13:15;;;;;;;113.70;52.63;;;15.10;99.90;;;;;;4095928;28;20057;-73
2021/09/24 05:15:16;;;;;;;121.93;56.13;;;15.10;99.90;;;;;;4098113;28;20397;-73
2021/09/24 05:17:17;;;;;;;122.50;56.40;;;15.10;99.90;;;;;;4098722;28;20052;-74
2021/09/24 05:19:19;;;;;;;140.07;60.38;;;15.20;99.90;;;;;;4096671;28;20507;-74
2021/09/24 05:21:20;;;;;;;127.70;57.28;;;15.20;99.90;;;;;;4099943;28;20052;-74
2021/09/24 05:23:20;;;;;;;118.55;56.92;;;15.30;99.90;;;;;;4097174;28;20460;-73
2021/09/24 05:25:22;;;;;;;129.38;54.40;;;15.30;99.90;;;;;;4098910;28;20056;-73
2021/09/24 05:27:22;;;;;;;137.10;58.95;;;15.40;99.90;;;;;;4080624;28;20051;-74
2021/09/24 05:29:23;;;;;;;132.35;56.92;;;15.50;99.90;;;;;;4099267;28;20056;-71
2021/09/24 05:31:24;;;;;;;138.85;54.67;;;15.40;99.90;;;;;;4098056;28;20243;-72
2021/09/24 05:33:25;;;;;;;124.30;55.03;;;15.40;99.90;;;;;;4099664;28;20050;-71
2021/09/24 05:35:26;;;;;;;145.20;59.58;;;15.50;99.90;;;;;;4097882;28;20054;-72
2021/09/24 05:37:27;;;;;;;139.82;59.88;;;15.50;99.90;;;;;;4101406;28;20123;-73
2021/09/24 05:39:28;;;;;;;163.70;63.85;;;15.50;99.90;;;;;;4102441;28;20050;-73
2021/09/24 05:41:29;;;;;;;147.48;60.65;;;15.40;99.90;;;;;;4098843;28;20618;-73
2021/09/24 05:43:29;;;;;;;170.30;63.40;;;15.50;99.90;;;;;;4099444;28;20046;-72
2021/09/24 05:45:31;;;;;;;155.50;61.72;;;15.40;99.90;;;;;;4099702;28;20084;-73
2021/09/24 05:47:31;;;;;;;171.68;61.45;;;15.50;99.90;;;;;;4099888;28;20178;-72
2021/09/24 05:49:32;;;;;;;153.48;60.47;;;15.60;99.90;;;;;;4098448;28;20160;-72
2021/09/24 05:51:33;;;;;;;149.85;60.67;;;15.60;99.90;;;;;;4097771;28;20033;-72
2021/09/24 05:53:33;;;;;;;138.48;57.65;;;15.60;99.90;;;;;;4100634;28;20050;-73
2021/09/24 05:55:34;;;;;;;153.32;62.22;;;15.70;99.90;;;;;;4100683;28;20690;-72
2021/09/24 05:57:35;;;;;;;163.60;64.72;;;15.70;99.90;;;;;;4099600;28;20412;-73
2021/09/24 05:59:36;;;;;;;137.15;57.42;;;15.80;99.90;;;;;;4100547;28;20605;-74
2021/09/24 06:01:37;;;;;;;147.70;60.58;;;15.90;99.90;;;;;;4098156;28;20049;-71
2021/09/24 06:03:38;;;;;;;144.40;60.05;;;15.90;99.90;;;;;;4097693;28;20050;-73
2021/09/24 06:05:39;;;;;;;143.85;59.67;;;16.00;99.90;;;;;;4099640;28;20038;-73
2021/09/24 06:07:43;;;;;;;148.10;61.78;;;16.00;99.90;;;;;;4098644;28;20046;-72
2021/09/24 06:09:44;;;;;;;147.35;64.20;;;15.90;99.90;;;;;;4097199;28;20115;-73
2021/09/24 06:11:45;;;;;;;143.27;59.47;;;16.00;99.90;;;;;;4098475;28;20050;-73
2021/09/24 06:13:46;;;;;;;131.20;57.92;;;16.10;99.90;;;;;;4101008;28;20138;-73
2021/09/24 06:15:48;;;;;;;149.77;63.60;;;16.20;99.90;;;;;;4099812;28;20073;-72
2021/09/24 06:17:50;;;;;;;144.98;65.97;;;16.20;99.90;;;;;;4098686;28;20633;-71
2021/09/24 06:19:51;;;;;;;135.10;60.53;;;16.20;99.90;;;;;;4115106;28;20047;-73
2021/09/24 06:21:52;;;;;;;152.18;63.88;;;16.20;99.90;;;;;;4100091;28;20136;-72
2021/09/24 06:23:53;;;;;;;130.90;60.28;;;16.20;99.90;;;;;;4101018;28;20717;-73
2021/09/24 06:25:54;;;;;;;138.10;61.60;;;16.20;99.90;;;;;;4082443;28;20604;-74
2021/09/24 06:27:54;;;;;;;127.07;55.72;;;16.20;99.90;;;;;;4097653;28;20089;-72
2021/09/24 06:29:56;;;;;;;125.75;58.42;;;16.30;99.90;;;;;;4082063;28;20176;-73
2021/09/24 06:31:57;;;;;;;118.40;55.00;;;16.30;99.90;;;;;;4096181;28;20079;-71
2021/09/24 06:34:03;;;;;;;127.32;58.85;;;16.40;99.90;;;;;;4100773;28;20037;-72
2021/09/24 06:36:04;;;;;;;117.68;57.20;;;16.40;99.90;;;;;;4098822;28;20489;-71
2021/09/24 06:38:05;;;;;;;115.22;54.35;;;16.50;99.90;;;;;;4099256;28;20053;-73
2021/09/24 06:40:07;;;;;;;113.07;54.50;;;16.50;99.90;;;;;;4096762;28;20038;-74
2021/09/24 06:42:08;;;;;;;122.80;55.40;;;16.50;99.90;;;;;;4098383;28;20042;-74
2021/09/24 06:44:11;;;;;;;103.75;52.15;;;16.50;99.90;;;;;;4098748;28;20416;-74
2021/09/24 06:46:12;;;;;;;109.65;54.40;;;16.60;99.90;;;;;;4095256;28;20046;-72
2021/09/24 06:48:13;;;;;;;96.63;51.33;;;16.70;99.90;;;;;;4096282;28;20096;-73
2021/09/24 06:50:14;;;;;;;104.00;53.15;;;16.70;99.90;;;;;;4100076;28;20145;-72
2021/09/24 06:52:14;;;;;;;99.63;54.00;;;16.70;99.90;;;;;;4084035;28;20046;-73
2021/09/24 06:54:17;;;;;;;91.32;49.47;;;16.70;99.90;;;;;;4098716;28;20046;-72
2021/09/24 06:56:18;;;;;;;96.80;50.63;;;16.70;99.90;;;;;;4084360;28;20034;-73
2021/09/24 06:58:19;;;;;;;91.72;51.55;;;16.80;99.90;;;;;;4115661;28;20573;-73
2021/09/24 07:00:20;;;;;;;83.80;47.75;;;16.90;99.90;;;;;;4100366;28;20191;-73
2021/09/24 07:02:21;;;;;;;93.07;50.75;;;16.90;99.90;;;;;;4082786;28;20043;-73
2021/09/24 07:04:22;;;;;;;79.50;44.17;;;16.90;99.90;;;;;;4114970;28;20045;-72
2021/09/24 07:06:23;;;;;;;82.25;48.03;;;16.90;99.90;;;;;;4082789;28;20053;-74
2021/09/24 07:08:24;;;;;;;89.97;48.83;;;17.00;99.90;;;;;;4099767;28;20069;-72
2021/09/24 07:10:24;;;;;;;86.18;46.75;;;17.00;99.90;;;;;;4100651;28;20038;-73
2021/09/24 07:12:26;;;;;;;79.15;47.60;;;17.00;99.90;;;;;;4100660;28;20049;-72
2021/09/24 07:14:30;;;;;;;86.18;47.78;;;17.00;99.90;;;;;;4099560;28;20066;-74
2021/09/24 07:16:31;;;;;;;78.25;45.22;;;17.00;99.90;;;;;;4099965;28;20046;-74
2021/09/24 07:18:32;;;;;;;78.45;46.45;;;17.10;99.90;;;;;;4099048;28;20057;-73
2021/09/24 07:20:33;;;;;;;94.60;48.05;;;17.10;99.90;;;;;;4099093;28;20034;-74
2021/09/24 07:22:34;;;;;;;75.88;45.72;;;17.20;99.90;;;;;;4098999;28;20037;-73
2021/09/24 07:24:35;;;;;;;72.95;44.42;;;17.30;99.90;;;;;;4097194;28;20129;-73
2021/09/24 07:26:36;;;;;;;74.90;45.75;;;17.30;99.90;;;;;;4098250;28;20065;-72
2021/09/24 07:28:37;;;;;;;78.05;44.97;;;17.40;99.90;;;;;;4098122;28;20418;-72
2021/09/24 07:30:38;;;;;;;73.63;43.63;;;17.40;99.90;;;;;;4100635;28;20437;-72
2021/09/24 07:32:41;;;;;;;70.22;44.10;;;17.50;99.90;;;;;;4098095;28;20053;-73
2021/09/24 07:34:43;;;;;;;70.50;42.25;;;17.50;99.90;;;;;;4115244;28;20068;-76
2021/09/24 07:36:44;;;;;;;68.95;39.95;;;17.50;99.90;;;;;;4098556;28;20140;-73
2021/09/24 07:38:47;;;;;;;74.43;42.17;;;17.50;99.90;;;;;;4098838;28;20045;-74
2021/09/24 07:40:48;;;;;;;67.78;41.70;;;17.60;99.90;;;;;;4095509;28;20065;-72
2021/09/24 07:42:49;;;;;;;72.45;44.22;;;17.50;99.90;;;;;;4098815;28;20611;-73
2021/09/24 07:44:50;;;;;;;65.55;41.13;;;17.50;99.90;;;;;;4097414;28;20037;-72
2021/09/24 07:46:51;;;;;;;64.45;40.25;;;17.60;99.90;;;;;;4099880;28;20042;-73
2021/09/24 07:48:52;;;;;;;62.78;40.80;;;17.70;99.90;;;;;;4097184;28;20436;-73
2021/09/24 07:50:52;;;;;;;61.03;39.55;;;17.70;99.90;;;;;;4099494;28;20034;-74
2021/09/24 07:52:55;;;;;;;60.53;37.83;;;17.70;99.90;;;;;;4089564;28;20039;-74
2021/09/24 07:54:56;;;;;;;63.63;40.67;;;17.80;99.90;;;;;;4095892;28;21393;-75
2021/09/24 07:56:56;;;;;;;60.28;39.97;;;17.80;99.90;;;;;;4096603;28;20038;-72
2021/09/24 07:58:57;;;;;;;62.70;40.17;;;17.90;99.90;;;;;;4097675;28;20086;-73
2021/09/24 08:00:58;;;;;;;67.10;41.25;;;17.90;99.90;;;;;;4099771;28;20056;-73
2021/09/24 08:02:59;;;;;;;57.55;38.10;;;18.10;99.90;;;;;;4098243;28;20161;-75
2021/09/24 08:05:00;;;;;;;57.90;39.83;;;18.10;99.90;;;;;;4097765;28;20042;-74
2021/09/24 08:07:01;;;;;;;61.03;39.30;;;18.20;99.90;;;;;;4097284;28;20042;-73
2021/09/24 08:09:03;;;;;;;62.05;40.25;;;18.20;99.90;;;;;;4099164;28;20065;-74
2021/09/24 08:11:04;;;;;;;58.45;36.95;;;18.40;99.90;;;;;;4095444;28;20499;-72
2021/09/24 08:13:05;;;;;;;50.50;35.10;;;18.50;99.90;;;;;;4096457;28;22318;-73
2021/09/24 08:15:07;;;;;;;63.28;40.33;;;18.60;99.90;;;;;;4098086;28;20129;-73
2021/09/24 08:17:09;;;;;;;54.40;37.72;;;18.70;99.90;;;;;;4098728;28;20030;-72
2021/09/24 08:19:10;;;;;;;54.78;36.75;;;18.90;99.90;;;;;;4098944;28;20120;-72
2021/09/24 08:21:10;;;;;;;51.15;35.42;;;18.90;99.90;;;;;;4099291;28;20485;-73
2021/09/24 08:23:12;;;;;;;49.53;37.58;;;19.00;99.90;;;;;;4095967;28;20073;-74
2021/09/24 08:25:16;;;;;;;53.47;36.75;;;19.00;99.90;;;;;;4098010;28;20137;-74
2021/09/24 08:27:17;;;;;;;52.72;37.78;;;18.90;99.90;;;;;;4081495;28;20061;-73
2021/09/24 08:29:18;;;;;;;49.08;36.60;;;18.90;99.90;;;;;;4098641;28;20513;-73
2021/09/24 08:31:19;;;;;;;50.78;36.05;;;19.00;99.90;;;;;;4098709;28;20046;-73
2021/09/24 08:33:20;;;;;;;53.00;35.50;;;19.00;99.90;;;;;;4097585;28;20141;-74
2021/09/24 08:35:22;;;;;;;48.55;38.13;;;19.10;99.90;;;;;;4100021;28;20044;-72
2021/09/24 08:37:23;;;;;;;51.40;34.88;;;19.20;99.90;;;;;;4099530;28;20037;-73
2021/09/24 08:39:23;;;;;;;45.80;35.25;;;19.10;99.90;;;;;;4098442;28;20045;-75
2021/09/24 08:41:27;;;;;;;47.97;34.97;;;19.30;99.90;;;;;;4097509;28;20152;-73
2021/09/24 08:43:29;;;;;;;47.38;34.28;;;19.30;99.90;;;;;;4097768;28;20451;-73
2021/09/24 08:45:32;;;;;;;47.70;32.83;;;19.30;99.90;;;;;;4097838;28;20101;-73
2021/09/24 08:47:36;;;;;;;44.45;31.48;;;19.20;99.90;;;;;;4081343;28;20492;-73
2021/09/24 08:49:38;;;;;;;45.22;32.13;;;19.30;99.90;;;;;;4112420;28;20077;-73
2021/09/24 08:51:40;;;;;;;39.92;32.42;;;19.50;99.90;;;;;;4096215;28;20057;-73
2021/09/24 08:53:42;;;;;;;42.20;32.67;;;19.50;99.90;;;;;;4083052;28;20043;-73
2021/09/24 08:55:44;;;;;;;39.60;32.92;;;19.60;99.90;;;;;;4114837;28;20053;-74
2021/09/24 08:57:46;;;;;;;45.40;32.30;;;19.80;99.90;;;;;;4081718;28;20425;-72
2021/09/24 08:59:46;;;;;;;36.10;29.10;;;19.80;99.90;;;;;;4095616;28;20103;-74
2021/09/24 09:02:03;;;;;;;44.33;31.02;;;19.90;99.90;;;;;;4099316;28;20046;-74
2021/09/24 09:04:04;;;;;;;37.85;28.45;;;19.90;99.90;;;;;;4095464;28;20050;-73
2021/09/24 09:06:05;;;;;;;39.38;29.17;;;20.10;99.90;;;;;;4085918;28;20559;-72
2021/09/24 09:08:27;;;;;;;35.60;28.30;;;20.00;99.90;;;;;;4083185;28;20145;-73
2021/09/24 09:10:42;;;;;;;31.60;25.15;;;20.10;99.90;;;;;;4100893;28;20070;-72
2021/09/24 09:12:43;;;;;;;41.55;28.15;;;20.10;99.90;;;;;;4100908;28;20041;-73
2021/09/24 09:15:14;;;;;;;36.28;26.60;;;20.30;99.90;;;;;;4085430;28;20133;-72
2021/09/24 09:17:35;;;;;;;36.53;27.75;;;20.70;99.90;;;;;;4100183;28;20034;-73
2021/09/24 09:19:37;;;;;;;29.50;25.67;;;20.90;99.90;;;;;;4099654;28;20092;-74
2021/09/24 09:21:42;;;;;;;31.52;25.05;;;21.00;99.90;;;;;;4101822;28;20034;-73
2021/09/24 09:23:48;;;;;;;36.03;25.85;;;21.00;99.90;;;;;;4101097;28;20496;-74
2021/09/24 09:25:54;;;;;;;29.98;23.60;;;20.80;99.90;;;;;;4101279;28;20505;-72
2021/09/24 09:27:58;;;;;;;27.42;23.73;;;20.90;99.90;;;;;;4101533;28;20045;-73
2021/09/24 09:30:08;;;;;;;26.33;22.38;;;20.90;99.90;;;;;;4100611;28;20065;-73
2021/09/24 09:32:12;;;;;;;30.58;24.63;;;20.90;99.90;;;;;;4100671;28;20038;-74
2021/09/24 09:34:35;;;;;;;30.63;22.42;;;20.80;99.90;;;;;;4099133;28;20056;-74
2021/09/24 09:36:41;;;;;;;29.45;22.13;;;20.90;99.90;;;;;;4117412;28;20038;-73
2021/09/24 09:38:42;;;;;;;26.42;21.48;;;20.80;99.90;;;;;;4115876;28;20103;-71
2021/09/24 09:40:45;;;;;;;25.48;19.95;;;20.60;99.90;;;;;;4101391;28;20041;-72
2021/09/24 09:42:48;;;;;;;24.48;20.00;;;20.40;99.90;;;;;;4099764;28;20046;-74
2021/09/24 09:44:49;;;;;;;28.23;21.00;;;20.30;99.90;;;;;;4098778;28;20038;-73
2021/09/24 09:46:50;;;;;;;30.35;21.27;;;20.10;99.90;;;;;;4098996;28;20504;-73
2021/09/24 09:49:16;;;;;;;24.85;19.80;;;20.00;99.90;;;;;;4100567;28;20145;-73
2021/09/24 09:51:21;;;;;;;22.38;20.00;;;20.00;99.90;;;;;;4097914;28;20038;-74
2021/09/24 09:53:23;;;;;;;25.48;21.30;;;20.20;99.90;;;;;;4083327;28;20046;-74
2021/09/24 09:55:27;;;;;;;26.10;20.13;;;20.40;99.90;;;;;;4114508;28;20033;-74
2021/09/24 09:57:28;;;;;;;26.63;20.67;;;20.60;99.90;;;;;;4101375;28;20056;-72
2021/09/24 09:59:31;;;;;;;22.55;19.27;;;20.70;99.90;;;;;;4099048;28;20045;-74
2021/09/24 10:01:32;;;;;;;;;;;20.80;99.90;;;;;;4101454;28;20612;-72
2021/09/24 10:03:36;;;;;;;18.60;15.63;;;20.70;99.90;;;;;;4098666;28;19957;-73
2021/09/24 10:05:42;;;;;;;21.60;17.63;;;21.00;99.90;;;;;;4100130;28;20061;-74
2021/09/24 10:07:43;;;;;;;19.67;16.77;;;21.20;99.90;;;;;;4099859;28;20072;-73
2021/09/24 10:09:47;;;;;;;20.38;16.45;;;21.10;99.90;;;;;;4101646;28;20049;-73
2021/09/24 10:11:49;;;;;;;18.85;16.65;;;21.10;99.90;;;;;;4101219;28;20050;-72
2021/09/24 10:14:04;;;;;;;20.48;14.70;;;21.20;99.90;;;;;;4101760;28;20080;-73
2021/09/24 10:16:05;;;;;;;16.50;14.05;;;21.40;99.90;;;;;;4097202;28;20137;-73
2021/09/24 10:18:05;;;;;;;15.02;13.52;;;22.40;99.90;;;;;;4100687;28;20096;-74
2021/09/24 10:20:10;;;;;;;16.52;14.93;;;22.50;99.90;;;;;;4099291;28;20092;-74
2021/09/24 10:22:12;;;;;;;16.73;12.70;;;23.00;99.90;;;;;;4082758;28;20137;-75